sensor_id;sensor_type;location;lat;lon;timestamp;P1;durP1;ratioP1;P2;durP2;ratioP2
57303;SDS011;43150;50.986;18.208;2024-03-02T00:00:01;49.00;;;25.70;;
57303;SDS011;43150;50.986;18.208;2024-03-02T00:02:40;53.40;;;26.50;;
57303;SDS011;43150;50.986;18.208;2024-03-02T00:05:06;50.00;;;23.60;;
57303;SDS011;43150;50.986;18.208;2024-03-02T00:07:32;99.70;;;57.50;;
57303;SDS011;43150;50.986;18.208;2024-03-02T00:09:58;56.60;;;29.80;;
57303;SDS011;43150;50.986;18.208;2024-03-02T00:12:23;43.50;;;24.60;;
57303;SDS011;43150;50.986;18.208;2024-03-02T00:14:49;60.90;;;29.60;;
57303;SDS011;43150;50.986;18.208;2024-03-02T00:17:17;48.30;;;22.50;;
57303;SDS011;43150;50.986;18.208;2024-03-02T00:19:44;45.80;;;26.80;;
57303;SDS011;43150;50.986;18.208;2024-03-02T00:22:09;98.10;;;59.10;;
57303;SDS011;43150;50.986;18.208;2024-03-02T00:24:35;45.50;;;24.70;;
57303;SDS011;43150;50.986;18.208;2024-03-02T00:27:01;52.90;;;26.70;;
57303;SDS011;43150;50.986;18.208;2024-03-02T00:29:26;96.80;;;58.10;;
57303;SDS011;43150;50.986;18.208;2024-03-02T00:31:57;53.10;;;28.60;;
57303;SDS011;43150;50.986;18.208;2024-03-02T00:34:23;49.30;;;26.10;;
57303;SDS011;43150;50.986;18.208;2024-03-02T00:36:48;52.40;;;26.40;;
57303;SDS011;43150;50.986;18.208;2024-03-02T00:39:14;52.40;;;25.90;;
57303;SDS011;43150;50.986;18.208;2024-03-02T00:41:40;48.90;;;26.20;;
57303;SDS011;43150;50.986;18.208;2024-03-02T00:44:07;50.80;;;25.30;;
57303;SDS011;43150;50.986;18.208;2024-03-02T00:46:41;52.50;;;26.30;;
57303;SDS011;43150;50.986;18.208;2024-03-02T00:49:12;48.40;;;25.50;;
57303;SDS011;43150;50.986;18.208;2024-03-02T00:51:38;51.00;;;25.00;;
57303;SDS011;43150;50.986;18.208;2024-03-02T00:54:05;50.10;;;25.50;;
57303;SDS011;43150;50.986;18.208;2024-03-02T00:56:31;50.40;;;26.50;;
57303;SDS011;43150;50.986;18.208;2024-03-02T00:58:57;49.80;;;27.70;;
57303;SDS011;43150;50.986;18.208;2024-03-02T01:01:23;49.80;;;24.30;;
57303;SDS011;43150;50.986;18.208;2024-03-02T01:03:49;47.50;;;26.20;;
57303;SDS011;43150;50.986;18.208;2024-03-02T01:06:15;94.70;;;55.50;;
57303;SDS011;43150;50.986;18.208;2024-03-02T01:08:43;53.40;;;27.00;;
57303;SDS011;43150;50.986;18.208;2024-03-02T01:11:08;50.20;;;25.30;;
57303;SDS011;43150;50.986;18.208;2024-03-02T01:13:36;51.10;;;25.30;;
57303;SDS011;43150;50.986;18.208;2024-03-02T01:16:02;52.50;;;28.10;;
57303;SDS011;43150;50.986;18.208;2024-03-02T01:18:28;94.20;;;57.00;;
57303;SDS011;43150;50.986;18.208;2024-03-02T01:20:54;47.80;;;26.50;;
57303;SDS011;43150;50.986;18.208;2024-03-02T01:23:21;42.20;;;22.40;;
57303;SDS011;43150;50.986;18.208;2024-03-02T01:25:47;45.40;;;24.60;;
57303;SDS011;43150;50.986;18.208;2024-03-02T01:28:13;41.20;;;21.70;;
57303;SDS011;43150;50.986;18.208;2024-03-02T01:30:38;46.00;;;22.00;;
57303;SDS011;43150;50.986;18.208;2024-03-02T01:33:04;72.80;;;50.80;;
57303;SDS011;43150;50.986;18.208;2024-03-02T01:35:31;48.30;;;25.20;;
57303;SDS011;43150;50.986;18.208;2024-03-02T01:37:56;47.70;;;26.40;;
57303;SDS011;43150;50.986;18.208;2024-03-02T01:40:22;43.60;;;25.20;;
57303;SDS011;43150;50.986;18.208;2024-03-02T01:42:51;48.80;;;25.10;;
57303;SDS011;43150;50.986;18.208;2024-03-02T01:45:17;44.60;;;24.30;;
57303;SDS011;43150;50.986;18.208;2024-03-02T01:47:43;41.00;;;23.70;;
57303;SDS011;43150;50.986;18.208;2024-03-02T01:50:08;52.90;;;24.80;;
57303;SDS011;43150;50.986;18.208;2024-03-02T01:52:34;39.70;;;22.60;;
57303;SDS011;43150;50.986;18.208;2024-03-02T01:55:00;43.90;;;24.40;;
57303;SDS011;43150;50.986;18.208;2024-03-02T01:57:25;47.70;;;25.80;;
57303;SDS011;43150;50.986;18.208;2024-03-02T01:59:51;57.40;;;26.30;;
57303;SDS011;43150;50.986;18.208;2024-03-02T02:02:16;71.50;;;50.20;;
57303;SDS011;43150;50.986;18.208;2024-03-02T02:04:42;48.90;;;23.50;;
57303;SDS011;43150;50.986;18.208;2024-03-02T02:07:08;43.90;;;24.20;;
57303;SDS011;43150;50.986;18.208;2024-03-02T02:09:34;50.40;;;24.10;;
57303;SDS011;43150;50.986;18.208;2024-03-02T02:11:59;43.60;;;22.70;;
57303;SDS011;43150;50.986;18.208;2024-03-02T02:14:25;45.20;;;23.70;;
57303;SDS011;43150;50.986;18.208;2024-03-02T02:16:51;40.90;;;22.70;;
57303;SDS011;43150;50.986;18.208;2024-03-02T02:19:17;42.20;;;21.90;;
57303;SDS011;43150;50.986;18.208;2024-03-02T02:21:43;34.10;;;19.00;;
57303;SDS011;43150;50.986;18.208;2024-03-02T02:24:09;46.00;;;21.20;;
57303;SDS011;43150;50.986;18.208;2024-03-02T02:26:34;37.40;;;20.80;;
57303;SDS011;43150;50.986;18.208;2024-03-02T02:29:01;51.00;;;26.60;;
57303;SDS011;43150;50.986;18.208;2024-03-02T02:31:26;68.80;;;48.60;;
57303;SDS011;43150;50.986;18.208;2024-03-02T02:33:52;44.80;;;24.50;;
57303;SDS011;43150;50.986;18.208;2024-03-02T02:36:18;65.70;;;48.70;;
57303;SDS011;43150;50.986;18.208;2024-03-02T02:38:44;40.70;;;22.50;;
57303;SDS011;43150;50.986;18.208;2024-03-02T02:41:12;34.30;;;19.20;;
57303;SDS011;43150;50.986;18.208;2024-03-02T02:43:38;44.10;;;22.70;;
57303;SDS011;43150;50.986;18.208;2024-03-02T02:46:05;42.40;;;22.90;;
57303;SDS011;43150;50.986;18.208;2024-03-02T02:48:31;45.30;;;23.70;;
57303;SDS011;43150;50.986;18.208;2024-03-02T02:50:56;31.70;;;17.30;;
57303;SDS011;43150;50.986;18.208;2024-03-02T02:53:21;40.60;;;21.50;;
57303;SDS011;43150;50.986;18.208;2024-03-02T02:55:47;37.20;;;22.50;;
57303;SDS011;43150;50.986;18.208;2024-03-02T02:58:12;40.50;;;23.50;;
57303;SDS011;43150;50.986;18.208;2024-03-02T03:00:38;29.80;;;17.20;;
57303;SDS011;43150;50.986;18.208;2024-03-02T03:03:05;46.40;;;22.40;;
57303;SDS011;43150;50.986;18.208;2024-03-02T03:05:30;43.10;;;21.90;;
57303;SDS011;43150;50.986;18.208;2024-03-02T03:07:56;37.60;;;19.70;;
57303;SDS011;43150;50.986;18.208;2024-03-02T03:10:21;41.60;;;22.60;;
57303;SDS011;43150;50.986;18.208;2024-03-02T03:12:48;70.50;;;48.50;;
57303;SDS011;43150;50.986;18.208;2024-03-02T03:15:14;37.40;;;22.20;;
57303;SDS011;43150;50.986;18.208;2024-03-02T03:17:41;41.60;;;22.70;;
57303;SDS011;43150;50.986;18.208;2024-03-02T03:20:07;39.00;;;22.90;;
57303;SDS011;43150;50.986;18.208;2024-03-02T03:22:36;62.70;;;47.50;;
57303;SDS011;43150;50.986;18.208;2024-03-02T03:25:01;64.50;;;47.10;;
57303;SDS011;43150;50.986;18.208;2024-03-02T03:27:29;43.30;;;23.70;;
57303;SDS011;43150;50.986;18.208;2024-03-02T03:29:54;69.20;;;49.00;;
57303;SDS011;43150;50.986;18.208;2024-03-02T03:32:20;43.50;;;24.40;;
57303;SDS011;43150;50.986;18.208;2024-03-02T03:34:46;41.80;;;22.90;;
57303;SDS011;43150;50.986;18.208;2024-03-02T03:37:13;43.10;;;22.70;;
57303;SDS011;43150;50.986;18.208;2024-03-02T03:39:38;43.30;;;22.90;;
57303;SDS011;43150;50.986;18.208;2024-03-02T03:42:04;61.00;;;47.60;;
57303;SDS011;43150;50.986;18.208;2024-03-02T03:44:30;38.20;;;21.10;;
57303;SDS011;43150;50.986;18.208;2024-03-02T03:46:55;41.20;;;23.30;;
57303;SDS011;43150;50.986;18.208;2024-03-02T03:49:21;34.90;;;20.80;;
57303;SDS011;43150;50.986;18.208;2024-03-02T03:51:47;42.80;;;22.70;;
57303;SDS011;43150;50.986;18.208;2024-03-02T03:54:12;46.70;;;24.90;;
57303;SDS011;43150;50.986;18.208;2024-03-02T03:56:38;46.60;;;25.10;;
57303;SDS011;43150;50.986;18.208;2024-03-02T03:59:03;63.80;;;48.70;;
57303;SDS011;43150;50.986;18.208;2024-03-02T04:01:30;46.40;;;23.50;;
57303;SDS011;43150;50.986;18.208;2024-03-02T04:03:56;42.20;;;24.00;;
57303;SDS011;43150;50.986;18.208;2024-03-02T04:06:22;42.90;;;24.60;;
57303;SDS011;43150;50.986;18.208;2024-03-02T04:08:48;37.40;;;22.50;;
57303;SDS011;43150;50.986;18.208;2024-03-02T04:11:13;39.30;;;21.80;;
57303;SDS011;43150;50.986;18.208;2024-03-02T04:13:39;37.80;;;20.80;;
57303;SDS011;43150;50.986;18.208;2024-03-02T04:16:05;38.40;;;23.50;;
57303;SDS011;43150;50.986;18.208;2024-03-02T04:18:30;34.10;;;19.30;;
57303;SDS011;43150;50.986;18.208;2024-03-02T04:20:58;46.10;;;23.80;;
57303;SDS011;43150;50.986;18.208;2024-03-02T04:23:27;37.50;;;20.40;;
57303;SDS011;43150;50.986;18.208;2024-03-02T04:25:52;38.30;;;19.90;;
57303;SDS011;43150;50.986;18.208;2024-03-02T04:28:18;35.80;;;21.70;;
57303;SDS011;43150;50.986;18.208;2024-03-02T04:30:43;41.80;;;23.30;;
57303;SDS011;43150;50.986;18.208;2024-03-02T04:33:09;40.80;;;20.80;;
57303;SDS011;43150;50.986;18.208;2024-03-02T04:35:35;41.30;;;22.90;;
57303;SDS011;43150;50.986;18.208;2024-03-02T04:38:01;36.60;;;20.10;;
57303;SDS011;43150;50.986;18.208;2024-03-02T04:40:26;65.00;;;46.30;;
57303;SDS011;43150;50.986;18.208;2024-03-02T04:42:52;59.30;;;45.60;;
57303;SDS011;43150;50.986;18.208;2024-03-02T04:45:17;39.10;;;21.70;;
57303;SDS011;43150;50.986;18.208;2024-03-02T04:47:43;37.80;;;21.40;;
57303;SDS011;43150;50.986;18.208;2024-03-02T04:50:08;40.50;;;22.80;;
57303;SDS011;43150;50.986;18.208;2024-03-02T04:52:34;39.40;;;20.10;;
57303;SDS011;43150;50.986;18.208;2024-03-02T04:55:00;39.90;;;21.30;;
57303;SDS011;43150;50.986;18.208;2024-03-02T04:57:35;34.20;;;19.60;;
57303;SDS011;43150;50.986;18.208;2024-03-02T05:00:00;38.60;;;20.50;;
57303;SDS011;43150;50.986;18.208;2024-03-02T05:02:26;32.10;;;20.00;;
57303;SDS011;43150;50.986;18.208;2024-03-02T05:04:51;34.70;;;19.20;;
57303;SDS011;43150;50.986;18.208;2024-03-02T05:07:17;35.00;;;18.70;;
57303;SDS011;43150;50.986;18.208;2024-03-02T05:09:42;32.60;;;18.60;;
57303;SDS011;43150;50.986;18.208;2024-03-02T05:12:08;33.70;;;18.60;;
57303;SDS011;43150;50.986;18.208;2024-03-02T05:14:52;36.90;;;17.90;;
57303;SDS011;43150;50.986;18.208;2024-03-02T05:17:18;32.50;;;18.30;;
57303;SDS011;43150;50.986;18.208;2024-03-02T05:19:43;42.10;;;22.50;;
57303;SDS011;43150;50.986;18.208;2024-03-02T05:22:09;40.20;;;20.00;;
57303;SDS011;43150;50.986;18.208;2024-03-02T05:24:34;34.50;;;19.50;;
57303;SDS011;43150;50.986;18.208;2024-03-02T05:27:00;38.40;;;19.90;;
57303;SDS011;43150;50.986;18.208;2024-03-02T05:29:25;31.40;;;18.80;;
57303;SDS011;43150;50.986;18.208;2024-03-02T05:31:50;34.00;;;18.30;;
57303;SDS011;43150;50.986;18.208;2024-03-02T05:34:16;35.60;;;20.20;;
57303;SDS011;43150;50.986;18.208;2024-03-02T05:36:41;43.20;;;19.30;;
57303;SDS011;43150;50.986;18.208;2024-03-02T05:39:06;34.20;;;19.80;;
57303;SDS011;43150;50.986;18.208;2024-03-02T05:41:34;37.00;;;20.20;;
57303;SDS011;43150;50.986;18.208;2024-03-02T05:44:00;37.10;;;20.10;;
57303;SDS011;43150;50.986;18.208;2024-03-02T05:46:26;35.90;;;19.70;;
57303;SDS011;43150;50.986;18.208;2024-03-02T05:48:52;31.00;;;18.30;;
57303;SDS011;43150;50.986;18.208;2024-03-02T05:51:18;33.40;;;19.00;;
57303;SDS011;43150;50.986;18.208;2024-03-02T05:53:43;32.20;;;17.30;;
57303;SDS011;43150;50.986;18.208;2024-03-02T05:56:09;36.40;;;19.50;;
57303;SDS011;43150;50.986;18.208;2024-03-02T05:58:35;33.60;;;20.20;;
57303;SDS011;43150;50.986;18.208;2024-03-02T06:01:03;38.70;;;21.50;;
57303;SDS011;43150;50.986;18.208;2024-03-02T06:03:30;38.90;;;18.80;;
57303;SDS011;43150;50.986;18.208;2024-03-02T06:05:55;38.60;;;20.40;;
57303;SDS011;43150;50.986;18.208;2024-03-02T06:08:21;51.90;;;41.40;;
57303;SDS011;43150;50.986;18.208;2024-03-02T06:10:46;35.90;;;20.00;;
57303;SDS011;43150;50.986;18.208;2024-03-02T06:13:12;36.10;;;20.00;;
57303;SDS011;43150;50.986;18.208;2024-03-02T06:15:37;32.00;;;18.20;;
57303;SDS011;43150;50.986;18.208;2024-03-02T06:18:03;37.60;;;19.40;;
57303;SDS011;43150;50.986;18.208;2024-03-02T06:20:29;33.30;;;19.00;;
57303;SDS011;43150;50.986;18.208;2024-03-02T06:22:56;54.70;;;41.50;;
57303;SDS011;43150;50.986;18.208;2024-03-02T06:25:21;35.50;;;20.30;;
57303;SDS011;43150;50.986;18.208;2024-03-02T06:27:47;33.80;;;20.20;;
57303;SDS011;43150;50.986;18.208;2024-03-02T06:30:13;46.60;;;37.30;;
57303;SDS011;43150;50.986;18.208;2024-03-02T06:32:38;44.00;;;36.60;;
57303;SDS011;43150;50.986;18.208;2024-03-02T06:35:04;36.90;;;19.20;;
57303;SDS011;43150;50.986;18.208;2024-03-02T06:37:31;44.40;;;35.90;;
57303;SDS011;43150;50.986;18.208;2024-03-02T06:39:56;42.60;;;36.20;;
57303;SDS011;43150;50.986;18.208;2024-03-02T06:42:23;28.00;;;18.10;;
57303;SDS011;43150;50.986;18.208;2024-03-02T06:44:49;43.30;;;36.00;;
57303;SDS011;43150;50.986;18.208;2024-03-02T06:47:16;44.80;;;38.60;;
57303;SDS011;43150;50.986;18.208;2024-03-02T06:49:42;48.80;;;41.80;;
57303;SDS011;43150;50.986;18.208;2024-03-02T06:52:07;35.00;;;23.50;;
57303;SDS011;43150;50.986;18.208;2024-03-02T06:54:33;35.60;;;20.20;;
57303;SDS011;43150;50.986;18.208;2024-03-02T06:57:00;43.90;;;37.70;;
57303;SDS011;43150;50.986;18.208;2024-03-02T06:59:25;43.40;;;38.40;;
57303;SDS011;43150;50.986;18.208;2024-03-02T07:01:51;30.60;;;17.90;;
57303;SDS011;43150;50.986;18.208;2024-03-02T07:04:16;45.00;;;36.90;;
57303;SDS011;43150;50.986;18.208;2024-03-02T07:06:42;30.20;;;18.60;;
57303;SDS011;43150;50.986;18.208;2024-03-02T07:09:08;46.60;;;37.40;;
57303;SDS011;43150;50.986;18.208;2024-03-02T07:11:36;32.50;;;19.00;;
57303;SDS011;43150;50.986;18.208;2024-03-02T07:14:01;45.10;;;37.90;;
57303;SDS011;43150;50.986;18.208;2024-03-02T07:16:27;44.00;;;38.50;;
57303;SDS011;43150;50.986;18.208;2024-03-02T07:18:58;34.20;;;20.20;;
57303;SDS011;43150;50.986;18.208;2024-03-02T07:21:24;43.10;;;38.10;;
57303;SDS011;43150;50.986;18.208;2024-03-02T07:23:50;41.00;;;36.40;;
57303;SDS011;43150;50.986;18.208;2024-03-02T07:26:15;27.90;;;17.80;;
57303;SDS011;43150;50.986;18.208;2024-03-02T07:28:43;41.40;;;35.60;;
57303;SDS011;43150;50.986;18.208;2024-03-02T07:31:09;43.10;;;35.40;;
57303;SDS011;43150;50.986;18.208;2024-03-02T07:33:35;28.20;;;17.60;;
57303;SDS011;43150;50.986;18.208;2024-03-02T07:36:01;41.20;;;33.20;;
57303;SDS011;43150;50.986;18.208;2024-03-02T07:38:27;39.90;;;32.50;;
57303;SDS011;43150;50.986;18.208;2024-03-02T07:40:54;39.40;;;34.50;;
57303;SDS011;43150;50.986;18.208;2024-03-02T07:43:20;35.20;;;31.30;;
57303;SDS011;43150;50.986;18.208;2024-03-02T07:45:46;41.70;;;32.80;;
57303;SDS011;43150;50.986;18.208;2024-03-02T07:48:12;37.70;;;32.30;;
57303;SDS011;43150;50.986;18.208;2024-03-02T07:50:37;42.30;;;35.90;;
57303;SDS011;43150;50.986;18.208;2024-03-02T07:53:05;37.50;;;33.00;;
57303;SDS011;43150;50.986;18.208;2024-03-02T07:55:31;35.10;;;29.70;;
57303;SDS011;43150;50.986;18.208;2024-03-02T07:57:56;37.00;;;32.70;;
57303;SDS011;43150;50.986;18.208;2024-03-02T08:00:22;42.30;;;36.70;;
57303;SDS011;43150;50.986;18.208;2024-03-02T08:02:48;34.80;;;30.50;;
57303;SDS011;43150;50.986;18.208;2024-03-02T08:05:14;34.90;;;29.90;;
57303;SDS011;43150;50.986;18.208;2024-03-02T08:07:40;33.00;;;29.20;;
57303;SDS011;43150;50.986;18.208;2024-03-02T08:10:06;32.80;;;27.70;;
57303;SDS011;43150;50.986;18.208;2024-03-02T08:12:32;31.40;;;27.50;;
57303;SDS011;43150;50.986;18.208;2024-03-02T08:14:58;34.50;;;28.20;;
57303;SDS011;43150;50.986;18.208;2024-03-02T08:17:24;33.90;;;28.30;;
57303;SDS011;43150;50.986;18.208;2024-03-02T08:19:49;31.70;;;26.20;;
57303;SDS011;43150;50.986;18.208;2024-03-02T08:22:15;28.30;;;23.40;;
57303;SDS011;43150;50.986;18.208;2024-03-02T08:24:47;29.50;;;24.40;;
57303;SDS011;43150;50.986;18.208;2024-03-02T08:27:13;29.60;;;24.30;;
57303;SDS011;43150;50.986;18.208;2024-03-02T08:29:40;29.60;;;23.90;;
57303;SDS011;43150;50.986;18.208;2024-03-02T08:32:06;29.40;;;22.20;;
57303;SDS011;43150;50.986;18.208;2024-03-02T08:34:32;26.20;;;21.00;;
57303;SDS011;43150;50.986;18.208;2024-03-02T08:36:59;25.20;;;21.40;;
57303;SDS011;43150;50.986;18.208;2024-03-02T08:39:24;27.20;;;21.90;;
57303;SDS011;43150;50.986;18.208;2024-03-02T08:41:50;27.10;;;21.70;;
57303;SDS011;43150;50.986;18.208;2024-03-02T08:44:16;24.50;;;20.80;;
57303;SDS011;43150;50.986;18.208;2024-03-02T08:46:42;23.90;;;19.60;;
57303;SDS011;43150;50.986;18.208;2024-03-02T08:49:07;24.20;;;20.10;;
57303;SDS011;43150;50.986;18.208;2024-03-02T08:51:33;24.70;;;19.10;;
57303;SDS011;43150;50.986;18.208;2024-03-02T08:53:59;23.40;;;20.30;;
57303;SDS011;43150;50.986;18.208;2024-03-02T08:56:24;23.00;;;18.90;;
57303;SDS011;43150;50.986;18.208;2024-03-02T08:58:50;23.80;;;19.50;;
57303;SDS011;43150;50.986;18.208;2024-03-02T09:01:16;24.60;;;18.40;;
57303;SDS011;43150;50.986;18.208;2024-03-02T09:03:42;22.90;;;19.50;;
57303;SDS011;43150;50.986;18.208;2024-03-02T09:06:11;22.00;;;19.60;;
57303;SDS011;43150;50.986;18.208;2024-03-02T09:08:36;24.40;;;19.80;;
57303;SDS011;43150;50.986;18.208;2024-03-02T09:11:02;24.10;;;20.10;;
57303;SDS011;43150;50.986;18.208;2024-03-02T09:13:28;22.20;;;18.40;;
57303;SDS011;43150;50.986;18.208;2024-03-02T09:15:54;23.60;;;18.60;;
57303;SDS011;43150;50.986;18.208;2024-03-02T09:18:20;23.30;;;19.30;;
57303;SDS011;43150;50.986;18.208;2024-03-02T09:20:45;20.80;;;18.20;;
57303;SDS011;43150;50.986;18.208;2024-03-02T09:23:11;29.00;;;19.20;;
57303;SDS011;43150;50.986;18.208;2024-03-02T09:25:37;20.60;;;18.40;;
57303;SDS011;43150;50.986;18.208;2024-03-02T09:28:03;19.70;;;17.20;;
57303;SDS011;43150;50.986;18.208;2024-03-02T09:30:28;24.10;;;17.90;;
57303;SDS011;43150;50.986;18.208;2024-03-02T09:32:54;20.90;;;17.70;;
57303;SDS011;43150;50.986;18.208;2024-03-02T09:35:19;20.70;;;17.00;;
57303;SDS011;43150;50.986;18.208;2024-03-02T09:37:45;20.20;;;17.20;;
57303;SDS011;43150;50.986;18.208;2024-03-02T09:40:11;21.10;;;16.70;;
57303;SDS011;43150;50.986;18.208;2024-03-02T09:42:39;18.50;;;15.80;;
57303;SDS011;43150;50.986;18.208;2024-03-02T09:45:06;20.20;;;15.20;;
57303;SDS011;43150;50.986;18.208;2024-03-02T09:47:32;18.10;;;15.20;;
57303;SDS011;43150;50.986;18.208;2024-03-02T09:49:58;21.30;;;15.80;;
57303;SDS011;43150;50.986;18.208;2024-03-02T09:52:24;17.10;;;15.30;;
57303;SDS011;43150;50.986;18.208;2024-03-02T09:54:50;18.90;;;15.70;;
57303;SDS011;43150;50.986;18.208;2024-03-02T09:57:15;20.80;;;16.10;;
57303;SDS011;43150;50.986;18.208;2024-03-02T09:59:41;21.30;;;15.80;;
57303;SDS011;43150;50.986;18.208;2024-03-02T10:02:06;15.70;;;13.90;;
57303;SDS011;43150;50.986;18.208;2024-03-02T10:04:32;19.60;;;14.60;;
57303;SDS011;43150;50.986;18.208;2024-03-02T10:07:31;17.20;;;14.20;;
57303;SDS011;43150;50.986;18.208;2024-03-02T10:09:50;18.80;;;14.30;;
57303;SDS011;43150;50.986;18.208;2024-03-02T10:12:17;15.70;;;13.30;;
57303;SDS011;43150;50.986;18.208;2024-03-02T10:14:43;17.20;;;14.30;;
57303;SDS011;43150;50.986;18.208;2024-03-02T10:17:14;18.60;;;14.40;;
57303;SDS011;43150;50.986;18.208;2024-03-02T10:19:40;14.70;;;12.80;;
57303;SDS011;43150;50.986;18.208;2024-03-02T10:22:07;18.70;;;14.70;;
57303;SDS011;43150;50.986;18.208;2024-03-02T10:24:40;15.30;;;13.00;;
57303;SDS011;43150;50.986;18.208;2024-03-02T10:27:07;13.20;;;11.70;;
57303;SDS011;43150;50.986;18.208;2024-03-02T10:29:36;17.20;;;13.50;;
57303;SDS011;43150;50.986;18.208;2024-03-02T10:32:04;16.80;;;14.10;;
57303;SDS011;43150;50.986;18.208;2024-03-02T10:34:31;15.90;;;13.70;;
57303;SDS011;43150;50.986;18.208;2024-03-02T10:36:57;18.60;;;13.80;;
57303;SDS011;43150;50.986;18.208;2024-03-02T10:39:23;15.20;;;13.20;;
57303;SDS011;43150;50.986;18.208;2024-03-02T10:44:36;16.60;;;13.10;;
57303;SDS011;43150;50.986;18.208;2024-03-02T10:47:04;17.40;;;14.10;;
57303;SDS011;43150;50.986;18.208;2024-03-02T10:49:34;20.70;;;14.50;;
57303;SDS011;43150;50.986;18.208;2024-03-02T10:52:01;15.20;;;13.10;;
57303;SDS011;43150;50.986;18.208;2024-03-02T10:54:27;19.40;;;13.90;;
57303;SDS011;43150;50.986;18.208;2024-03-02T10:56:58;17.60;;;14.30;;
57303;SDS011;43150;50.986;18.208;2024-03-02T10:59:37;15.70;;;14.10;;
57303;SDS011;43150;50.986;18.208;2024-03-02T11:02:06;16.20;;;13.60;;
57303;SDS011;43150;50.986;18.208;2024-03-02T11:04:34;17.10;;;14.70;;
57303;SDS011;43150;50.986;18.208;2024-03-02T11:07:02;18.90;;;14.50;;
57303;SDS011;43150;50.986;18.208;2024-03-02T11:09:28;19.50;;;14.70;;
57303;SDS011;43150;50.986;18.208;2024-03-02T11:14:40;21.80;;;16.50;;
57303;SDS011;43150;50.986;18.208;2024-03-02T11:17:08;15.60;;;13.30;;
57303;SDS011;43150;50.986;18.208;2024-03-02T11:19:34;19.30;;;14.20;;
57303;SDS011;43150;50.986;18.208;2024-03-02T11:22:02;19.10;;;14.70;;
57303;SDS011;43150;50.986;18.208;2024-03-02T11:24:28;19.70;;;15.80;;
57303;SDS011;43150;50.986;18.208;2024-03-02T11:26:58;16.10;;;14.30;;
57303;SDS011;43150;50.986;18.208;2024-03-02T11:32:20;19.30;;;16.00;;
57303;SDS011;43150;50.986;18.208;2024-03-02T11:34:47;20.10;;;16.70;;
57303;SDS011;43150;50.986;18.208;2024-03-02T11:37:15;20.90;;;17.20;;
57303;SDS011;43150;50.986;18.208;2024-03-02T11:39:41;20.00;;;16.50;;
57303;SDS011;43150;50.986;18.208;2024-03-02T11:42:08;20.80;;;17.00;;
57303;SDS011;43150;50.986;18.208;2024-03-02T11:44:35;20.80;;;16.50;;
57303;SDS011;43150;50.986;18.208;2024-03-02T11:47:01;22.70;;;17.70;;
57303;SDS011;43150;50.986;18.208;2024-03-02T11:52:13;22.10;;;15.50;;
57303;SDS011;43150;50.986;18.208;2024-03-02T11:54:39;15.40;;;13.50;;
57303;SDS011;43150;50.986;18.208;2024-03-02T11:57:06;16.10;;;13.50;;
57303;SDS011;43150;50.986;18.208;2024-03-02T11:59:32;22.10;;;14.30;;
57303;SDS011;43150;50.986;18.208;2024-03-02T12:01:58;17.80;;;14.40;;
57303;SDS011;43150;50.986;18.208;2024-03-02T12:04:23;16.40;;;13.90;;
57303;SDS011;43150;50.986;18.208;2024-03-02T12:06:59;17.90;;;14.40;;
57303;SDS011;43150;50.986;18.208;2024-03-02T12:09:28;18.10;;;14.80;;
57303;SDS011;43150;50.986;18.208;2024-03-02T12:17:25;18.10;;;14.20;;
57303;SDS011;43150;50.986;18.208;2024-03-02T12:19:51;18.30;;;15.60;;
57303;SDS011;43150;50.986;18.208;2024-03-02T12:22:17;18.00;;;14.40;;
57303;SDS011;43150;50.986;18.208;2024-03-02T12:24:43;18.40;;;13.50;;
57303;SDS011;43150;50.986;18.208;2024-03-02T12:27:11;16.80;;;13.50;;
57303;SDS011;43150;50.986;18.208;2024-03-02T12:29:37;16.60;;;13.20;;
57303;SDS011;43150;50.986;18.208;2024-03-02T12:32:03;18.00;;;13.90;;
57303;SDS011;43150;50.986;18.208;2024-03-02T12:34:30;16.80;;;14.00;;
57303;SDS011;43150;50.986;18.208;2024-03-02T12:36:56;17.90;;;14.30;;
57303;SDS011;43150;50.986;18.208;2024-03-02T12:39:26;19.60;;;15.70;;
57303;SDS011;43150;50.986;18.208;2024-03-02T12:41:52;20.40;;;17.40;;
57303;SDS011;43150;50.986;18.208;2024-03-02T12:44:19;23.30;;;18.20;;
57303;SDS011;43150;50.986;18.208;2024-03-02T12:46:45;24.00;;;17.70;;
57303;SDS011;43150;50.986;18.208;2024-03-02T12:49:11;23.50;;;18.90;;
57303;SDS011;43150;50.986;18.208;2024-03-02T12:51:37;25.60;;;19.40;;
57303;SDS011;43150;50.986;18.208;2024-03-02T12:54:06;23.50;;;19.40;;
57303;SDS011;43150;50.986;18.208;2024-03-02T12:56:31;24.20;;;18.50;;
57303;SDS011;43150;50.986;18.208;2024-03-02T12:58:59;26.10;;;19.90;;
57303;SDS011;43150;50.986;18.208;2024-03-02T13:01:25;25.30;;;20.60;;
57303;SDS011;43150;50.986;18.208;2024-03-02T13:03:52;25.70;;;20.50;;
57303;SDS011;43150;50.986;18.208;2024-03-02T13:06:19;25.70;;;20.70;;
57303;SDS011;43150;50.986;18.208;2024-03-02T13:08:45;25.50;;;21.40;;
57303;SDS011;43150;50.986;18.208;2024-03-02T13:11:12;25.20;;;20.90;;
57303;SDS011;43150;50.986;18.208;2024-03-02T13:13:41;27.40;;;21.10;;
57303;SDS011;43150;50.986;18.208;2024-03-02T13:16:10;23.00;;;20.50;;
57303;SDS011;43150;50.986;18.208;2024-03-02T13:18:35;22.20;;;19.60;;
57303;SDS011;43150;50.986;18.208;2024-03-02T13:21:02;26.10;;;19.70;;
57303;SDS011;43150;50.986;18.208;2024-03-02T13:23:27;24.10;;;19.50;;
57303;SDS011;43150;50.986;18.208;2024-03-02T13:25:58;22.70;;;19.80;;
57303;SDS011;43150;50.986;18.208;2024-03-02T13:28:24;23.20;;;19.80;;
57303;SDS011;43150;50.986;18.208;2024-03-02T13:30:50;22.40;;;18.40;;
57303;SDS011;43150;50.986;18.208;2024-03-02T13:33:16;23.60;;;20.50;;
57303;SDS011;43150;50.986;18.208;2024-03-02T13:35:44;24.30;;;20.50;;
57303;SDS011;43150;50.986;18.208;2024-03-02T13:38:10;24.10;;;20.40;;
57303;SDS011;43150;50.986;18.208;2024-03-02T13:40:36;23.90;;;20.50;;
57303;SDS011;43150;50.986;18.208;2024-03-02T13:43:02;24.50;;;20.40;;
57303;SDS011;43150;50.986;18.208;2024-03-02T13:45:30;26.40;;;21.50;;
57303;SDS011;43150;50.986;18.208;2024-03-02T13:47:56;25.20;;;22.10;;
57303;SDS011;43150;50.986;18.208;2024-03-02T13:50:21;25.40;;;20.80;;
57303;SDS011;43150;50.986;18.208;2024-03-02T13:52:47;29.70;;;23.30;;
57303;SDS011;43150;50.986;18.208;2024-03-02T13:55:12;29.20;;;24.30;;
57303;SDS011;43150;50.986;18.208;2024-03-02T13:57:38;30.00;;;24.40;;
57303;SDS011;43150;50.986;18.208;2024-03-02T14:00:04;25.00;;;22.00;;
57303;SDS011;43150;50.986;18.208;2024-03-02T14:02:35;30.60;;;24.50;;
57303;SDS011;43150;50.986;18.208;2024-03-02T14:05:01;36.80;;;23.30;;
57303;SDS011;43150;50.986;18.208;2024-03-02T14:07:27;28.70;;;23.40;;
57303;SDS011;43150;50.986;18.208;2024-03-02T14:09:52;26.80;;;22.40;;
57303;SDS011;43150;50.986;18.208;2024-03-02T14:12:18;30.50;;;24.50;;
57303;SDS011;43150;50.986;18.208;2024-03-02T14:14:44;39.30;;;28.90;;
57303;SDS011;43150;50.986;18.208;2024-03-02T14:17:09;31.70;;;26.00;;
57303;SDS011;43150;50.986;18.208;2024-03-02T14:19:40;30.90;;;25.90;;